createdAt,value
2022-10-23T00:00:47.249Z,9.457220
2022-10-23T00:01:47.136Z,9.457055
2022-10-23T00:02:47.225Z,9.457161
2022-10-23T00:03:47.099Z,9.457201
2022-10-23T00:04:47.112Z,9.457204
2022-10-23T00:05:47.073Z,9.457180
2022-10-23T00:06:47.084Z,9.457284
2022-10-23T00:07:47.074Z,9.457191
2022-10-23T00:08:47.044Z,9.457285
2022-10-23T00:09:47.032Z,9.457219
2022-10-23T00:10:47.060Z,9.457227
2022-10-23T00:11:47.021Z,9.457254
2022-10-23T00:12:47.008Z,9.457238
2022-10-23T00:13:47.016Z,9.457266
2022-10-23T00:14:47.060Z,9.457245
2022-10-23T00:15:47.031Z,9.457238
2022-10-23T00:16:46.998Z,9.457181
2022-10-23T00:17:46.959Z,9.457120
2022-10-23T00:18:46.949Z,9.457145
2022-10-23T00:19:46.954Z,9.457170
2022-10-23T00:20:46.962Z,9.457192
2022-10-23T00:21:46.929Z,9.457230
2022-10-23T00:22:46.932Z,9.457232
2022-10-23T00:23:46.898Z,9.457256
2022-10-23T00:24:46.888Z,9.457185
2022-10-23T00:25:46.899Z,9.457077
2022-10-23T00:26:46.907Z,9.457139
2022-10-23T00:27:46.874Z,9.456848
2022-10-23T00:28:46.881Z,9.457255
2022-10-23T00:29:46.832Z,9.457187
2022-10-23T00:30:46.897Z,9.457214
2022-10-23T00:31:46.834Z,9.457064
2022-10-23T00:32:46.803Z,9.457211
2022-10-23T00:33:46.799Z,9.457271
2022-10-23T00:34:46.819Z,9.457232
2022-10-23T00:35:46.831Z,9.457259
2022-10-23T00:36:46.775Z,9.457072
2022-10-23T00:37:46.785Z,9.457171
2022-10-23T00:38:46.749Z,9.457037
2022-10-23T00:39:46.755Z,9.457167
2022-10-23T00:40:46.799Z,9.457062
2022-10-23T00:41:46.714Z,9.457236
2022-10-23T00:42:46.722Z,9.457139
2022-10-23T00:43:46.730Z,9.457105
2022-10-23T00:44:46.667Z,9.457129
2022-10-23T00:45:46.699Z,9.457066
2022-10-23T00:46:46.706Z,9.456864
2022-10-23T00:47:46.648Z,9.456782
2022-10-23T00:48:46.662Z,9.457137
2022-10-23T00:49:46.620Z,9.456988
2022-10-23T00:50:46.676Z,9.457021
2022-10-23T00:51:46.648Z,9.457146
2022-10-23T00:52:46.640Z,9.457079
2022-10-23T00:53:52.849Z,9.457444
2022-10-23T00:54:47.586Z,9.457379
2022-10-23T00:55:46.613Z,9.457047
2022-10-23T00:56:46.576Z,9.457099
2022-10-23T00:57:46.583Z,9.457165
2022-10-23T00:58:46.592Z,9.457118
2022-10-23T00:59:46.542Z,9.456967
2022-10-23T01:00:46.550Z,9.457087
2022-10-23T01:01:46.680Z,9.457317
2022-10-23T01:02:46.856Z,9.457154
2022-10-23T01:03:46.510Z,9.457415
2022-10-23T01:04:46.530Z,9.457271
2022-10-23T01:06:46.490Z,9.457133
2022-10-23T01:07:46.499Z,9.457203
2022-10-23T01:08:46.455Z,9.457437
2022-10-23T01:09:46.461Z,9.457480
2022-10-23T01:10:46.469Z,9.457427
2022-10-23T01:11:46.421Z,9.457213
2022-10-23T01:12:46.408Z,9.457338
2022-10-23T01:13:46.440Z,9.457380
2022-10-23T01:14:46.399Z,9.457428
2022-10-23T01:15:46.403Z,9.457209
2022-10-23T01:16:46.359Z,9.457207
2022-10-23T01:17:46.722Z,9.457143
2022-10-23T01:18:46.370Z,9.457195
2022-10-23T01:19:46.333Z,9.457148
2022-10-23T01:20:46.343Z,9.457111
2022-10-23T01:21:46.293Z,9.457318
2022-10-23T01:22:46.293Z,9.457230
2022-10-23T01:23:46.299Z,9.457062
2022-10-23T01:24:46.307Z,9.457092
2022-10-23T01:25:46.272Z,9.456991
2022-10-23T01:26:46.274Z,9.457161
2022-10-23T01:27:46.286Z,9.457232
2022-10-23T01:28:46.237Z,9.457213
2022-10-23T01:29:46.240Z,9.457335
2022-10-23T01:30:46.248Z,9.457278
2022-10-23T01:31:46.219Z,9.457170
2022-10-23T01:32:46.223Z,9.457129
2022-10-23T01:33:46.207Z,9.457161
2022-10-23T01:34:46.172Z,9.457264
2022-10-23T01:35:46.194Z,9.457145
2022-10-23T01:36:46.183Z,9.457139
2022-10-23T01:37:46.142Z,9.457250
2022-10-23T01:38:46.161Z,9.457195
2022-10-23T01:39:46.169Z,9.457212
2022-10-23T01:40:46.128Z,9.457262
2022-10-23T01:41:46.116Z,9.457225
2022-10-23T01:42:46.109Z,9.457215
2022-10-23T01:43:46.115Z,9.457226
2022-10-23T01:44:46.105Z,9.457251
2022-10-23T01:45:46.108Z,9.457229
2022-10-23T01:46:46.069Z,9.457260
2022-10-23T01:47:46.057Z,9.457202
2022-10-23T01:48:46.048Z,9.457170
2022-10-23T01:49:46.042Z,9.457217
2022-10-23T01:50:46.046Z,9.457163
2022-10-23T01:51:46.004Z,9.457127
2022-10-23T01:52:46.055Z,9.457175
2022-10-23T01:53:45.995Z,9.457323
2022-10-23T01:54:46.017Z,9.457274
2022-10-23T01:55:46.018Z,9.457180
2022-10-23T01:56:45.980Z,9.457230
2022-10-23T01:57:46.113Z,9.457248
2022-10-23T01:58:45.945Z,9.457348
2022-10-23T01:59:45.950Z,9.457212
2022-10-23T02:00:45.966Z,9.457097
2022-10-23T02:01:46.039Z,9.457175
2022-10-23T02:02:45.926Z,9.457222
2022-10-23T02:03:46.008Z,9.457309
2022-10-23T02:04:45.890Z,9.457424
2022-10-23T02:05:45.899Z,9.457364
2022-10-23T02:06:45.882Z,9.457142
2022-10-23T02:07:45.846Z,9.457038
2022-10-23T02:08:45.870Z,9.457173
2022-10-23T02:09:45.877Z,9.457205
2022-10-23T02:10:45.834Z,9.457155
2022-10-23T02:11:45.840Z,9.457073
2022-10-23T02:12:45.799Z,9.456994
2022-10-23T02:13:45.802Z,9.457068
2022-10-23T02:14:45.809Z,9.457066
2022-10-23T02:15:45.817Z,9.456989
2022-10-23T02:16:45.772Z,9.457338
2022-10-23T02:17:45.787Z,9.457292
2022-10-23T02:18:45.762Z,9.457240
2022-10-23T02:19:45.751Z,9.457176
2022-10-23T02:20:45.760Z,9.457254
2022-10-23T02:21:45.759Z,9.457203
2022-10-23T02:22:45.715Z,9.457255
2022-10-23T02:23:45.716Z,9.457243
2022-10-23T02:24:45.695Z,9.457184
2022-10-23T02:25:45.704Z,9.457192
2022-10-23T02:26:45.682Z,9.457168
2022-10-23T02:27:45.700Z,9.457267
2022-10-23T02:28:45.648Z,9.457254
2022-10-23T02:29:45.662Z,9.457284
2022-10-23T02:30:45.673Z,9.457111
2022-10-23T02:31:45.625Z,9.457258
2022-10-23T02:32:45.773Z,9.457285
2022-10-23T02:33:45.590Z,9.457279
2022-10-23T02:34:45.649Z,9.457233
2022-10-23T02:35:45.579Z,9.457355
2022-10-23T02:36:45.560Z,9.457232
2022-10-23T02:37:45.821Z,9.457211
2022-10-23T02:38:45.577Z,9.457182
2022-10-23T02:39:45.531Z,9.457228
2022-10-23T02:40:45.591Z,9.457078
2022-10-23T02:41:45.548Z,9.457090
2022-10-23T02:42:45.499Z,9.457017
2022-10-23T02:43:45.506Z,9.457058
2022-10-23T02:44:45.517Z,9.457177
2022-10-23T02:45:45.486Z,9.457132
2022-10-23T02:46:45.482Z,9.457152
2022-10-23T02:47:46.460Z,9.457138
2022-10-23T02:48:45.441Z,9.457215
2022-10-23T02:49:45.450Z,9.457259
2022-10-23T02:50:45.456Z,9.457174
2022-10-23T02:51:45.411Z,9.457251
2022-10-23T02:52:45.420Z,9.457235
2022-10-23T02:53:45.487Z,9.457221
2022-10-23T02:54:45.425Z,9.457245
2022-10-23T02:55:45.441Z,9.456994
2022-10-23T02:56:45.373Z,9.457178
2022-10-23T02:57:45.588Z,9.457273
2022-10-23T02:58:45.352Z,9.457239
2022-10-23T02:59:45.373Z,9.457263
2022-10-23T03:00:45.388Z,9.457269
2022-10-23T03:01:45.424Z,9.457135
2022-10-23T03:02:45.347Z,9.457191
2022-10-23T03:03:45.308Z,9.457168
2022-10-23T03:04:45.309Z,9.457214
2022-10-23T03:05:45.311Z,9.457253
2022-10-23T03:06:45.319Z,9.457388
2022-10-23T03:07:45.504Z,9.457245
2022-10-23T03:08:45.281Z,9.457149
2022-10-23T03:09:45.236Z,9.457253
2022-10-23T03:10:45.308Z,9.457302
2022-10-23T03:11:45.251Z,9.457346
2022-10-23T03:12:45.455Z,9.457297
2022-10-23T03:13:45.214Z,9.457341
2022-10-23T03:14:45.221Z,9.457256
2022-10-23T03:15:45.218Z,9.457317
2022-10-23T03:16:45.185Z,9.457507
2022-10-23T03:17:45.187Z,9.457443
2022-10-23T03:18:45.193Z,9.457374
2022-10-23T03:19:45.217Z,9.457217
2022-10-23T03:20:45.189Z,9.457202
2022-10-23T03:21:45.135Z,9.457299
2022-10-23T03:22:45.465Z,9.457189
2022-10-23T03:23:45.135Z,9.457163
2022-10-23T03:24:45.127Z,9.457104
2022-10-23T03:25:46.120Z,9.457228
2022-10-23T03:26:45.086Z,9.457222
2022-10-23T03:27:45.113Z,9.457148
2022-10-23T03:28:45.070Z,9.457089
2022-10-23T03:29:45.074Z,9.457273
2022-10-23T03:30:45.080Z,9.457216
2022-10-23T03:31:45.034Z,9.457107
2022-10-23T03:32:45.392Z,9.457138
2022-10-23T03:33:45.053Z,9.457185
2022-10-23T03:34:45.010Z,9.457304
2022-10-23T03:35:45.069Z,9.457214
2022-10-23T03:36:45.023Z,9.457323
2022-10-23T03:37:45.267Z,9.457309
2022-10-23T03:38:44.981Z,9.457224
2022-10-23T03:39:44.984Z,9.457125
2022-10-23T03:40:44.957Z,9.457131
2022-10-23T03:41:44.952Z,9.457195
2022-10-23T03:42:44.964Z,9.457180
2022-10-23T03:43:44.957Z,9.457194
2022-10-23T03:44:44.922Z,9.457026
2022-10-23T03:45:44.925Z,9.456733
2022-10-23T03:46:44.891Z,9.456957
2022-10-23T03:47:45.107Z,9.456952
2022-10-23T03:48:44.906Z,9.456879
2022-10-23T03:49:44.913Z,9.457067
2022-10-23T03:50:44.870Z,9.457103
2022-10-23T03:51:44.852Z,9.457148
2022-10-23T03:52:45.105Z,9.457066
2022-10-23T03:53:44.837Z,9.457037
2022-10-23T03:54:44.845Z,9.457110
2022-10-23T03:55:44.862Z,9.457057
2022-10-23T03:56:44.800Z,9.457165
2022-10-23T03:57:44.790Z,9.457300
2022-10-23T03:58:44.779Z,9.457322
2022-10-23T03:59:44.781Z,9.457239
2022-10-23T04:00:44.830Z,9.457055
2022-10-23T04:01:44.905Z,9.457133
2022-10-23T04:02:45.112Z,9.457119
2022-10-23T04:03:44.730Z,9.457219
2022-10-23T04:04:44.719Z,9.457296
2022-10-23T04:05:44.747Z,9.457217
2022-10-23T04:06:44.723Z,9.457213
2022-10-23T04:07:44.834Z,9.457238
2022-10-23T04:08:44.677Z,9.457287
2022-10-23T04:09:44.679Z,9.457293
2022-10-23T04:10:44.680Z,9.457191
2022-10-23T04:11:44.670Z,9.457185
2022-10-23T04:12:45.072Z,9.457213
2022-10-23T04:13:44.662Z,9.457186
2022-10-23T04:14:44.687Z,9.457271
2022-10-23T04:15:44.629Z,9.457299
2022-10-23T04:16:44.625Z,9.457288
2022-10-23T04:17:44.594Z,9.457499
2022-10-23T04:18:44.615Z,9.457355
2022-10-23T04:19:44.618Z,9.457245
2022-10-23T04:20:44.588Z,9.457382
2022-10-23T04:21:44.560Z,9.457326
2022-10-23T04:22:45.020Z,9.457271
2022-10-23T04:23:44.547Z,9.457304
2022-10-23T04:24:44.554Z,9.457314
2022-10-23T04:25:44.611Z,9.457253
2022-10-23T04:26:44.524Z,9.457253
2022-10-23T04:27:44.869Z,9.457338
2022-10-23T04:28:44.504Z,9.457314
2022-10-23T04:29:44.488Z,9.457356
2022-10-23T04:30:44.496Z,9.457276
2022-10-23T04:31:44.504Z,9.457244
2022-10-23T04:32:44.436Z,9.457388
2022-10-23T04:33:45.442Z,9.457285
2022-10-23T04:34:44.453Z,9.457319
2022-10-23T04:35:45.145Z,9.457251
2022-10-23T04:36:44.432Z,9.457204
2022-10-23T04:37:44.688Z,9.457273
2022-10-23T04:38:44.378Z,9.457350
2022-10-23T04:39:44.384Z,9.457266
2022-10-23T04:40:44.392Z,9.457224
2022-10-23T04:41:44.371Z,9.457111
2022-10-23T04:42:44.659Z,9.457145
2022-10-23T04:43:44.363Z,9.457088
2022-10-23T04:44:44.352Z,9.457108
2022-10-23T04:45:44.320Z,9.457104
2022-10-23T04:46:44.330Z,9.457222
2022-10-23T04:47:44.296Z,9.457292
2022-10-23T04:48:44.325Z,9.457211
2022-10-23T04:49:44.329Z,9.457277
2022-10-23T04:50:47.303Z,9.457399
2022-10-23T04:51:44.262Z,9.457262
2022-10-23T04:52:44.696Z,9.457076
2022-10-23T04:53:44.253Z,9.457111
2022-10-23T04:54:44.263Z,9.457166
2022-10-23T04:55:44.263Z,9.457144
2022-10-23T04:56:44.201Z,9.457161
2022-10-23T04:58:03.771Z,9.457170
2022-10-23T04:58:44.169Z,9.457193
2022-10-23T04:59:44.161Z,9.457173
2022-10-23T05:00:44.185Z,9.457251
2022-10-23T05:01:44.190Z,9.457238
2022-10-23T05:02:44.360Z,9.457048
2022-10-23T05:03:44.119Z,9.457096
2022-10-23T05:04:44.115Z,9.457256
2022-10-23T05:05:44.123Z,9.457228
2022-10-23T05:06:44.097Z,9.457232
2022-10-23T05:07:44.353Z,9.457164
2022-10-23T05:08:44.082Z,9.457204
2022-10-23T05:09:44.066Z,9.457293
2022-10-23T05:10:44.064Z,9.457217
2022-10-23T05:11:44.050Z,9.457137
2022-10-23T05:12:44.036Z,9.457128
2022-10-23T05:13:44.041Z,9.457133
2022-10-23T05:14:44.013Z,9.457158
2022-10-23T05:16:43.990Z,9.457034
2022-10-23T05:17:44.264Z,9.457152
2022-10-23T05:18:43.980Z,9.457227
2022-10-23T05:19:43.969Z,9.456946
2022-10-23T05:20:43.964Z,9.456939
2022-10-23T05:21:43.947Z,9.457130
2022-10-23T05:22:43.939Z,9.457170
2022-10-23T05:23:43.931Z,9.457213
2022-10-23T05:24:46.963Z,9.457124
2022-10-23T05:25:45.926Z,9.457250
2022-10-23T05:26:43.900Z,9.456897
2022-10-23T05:27:44.191Z,9.456914
2022-10-23T05:28:43.873Z,9.457091
2022-10-23T05:29:43.873Z,9.457079
2022-10-23T05:30:43.878Z,9.457079
2022-10-23T05:31:43.859Z,9.457138
2022-10-23T05:32:44.302Z,9.457187
2022-10-23T05:33:44.186Z,9.457169
2022-10-23T05:34:43.822Z,9.456993
2022-10-23T05:35:43.841Z,9.457109
2022-10-23T05:36:43.804Z,9.457142
2022-10-23T05:37:43.797Z,9.457106
2022-10-23T05:38:43.789Z,9.457002
2022-10-23T05:39:43.772Z,9.457084
2022-10-23T05:40:43.780Z,9.457201
2022-10-23T05:41:43.762Z,9.456897
2022-10-23T05:42:44.172Z,9.457059
2022-10-23T05:43:43.737Z,9.456998
2022-10-23T05:44:43.719Z,9.457102
2022-10-23T05:45:43.738Z,9.457197
2022-10-23T05:46:43.710Z,9.457120
2022-10-23T05:47:43.697Z,9.457202
2022-10-23T05:48:43.668Z,9.457287
2022-10-23T05:49:43.669Z,9.457305
2022-10-23T05:50:43.675Z,9.457231
2022-10-23T05:51:43.652Z,9.457094
2022-10-23T05:52:43.978Z,9.457141
2022-10-23T05:53:43.640Z,9.457135
2022-10-23T05:54:43.625Z,9.457240
2022-10-23T05:55:43.640Z,9.457154
2022-10-23T05:56:43.603Z,9.457211
2022-10-23T05:57:43.841Z,9.457257
2022-10-23T05:58:43.586Z,9.457240
2022-10-23T05:59:43.581Z,9.457111
2022-10-23T06:00:43.578Z,9.457061
2022-10-23T06:01:43.746Z,9.457184
2022-10-23T06:02:43.577Z,9.457264
2022-10-23T06:03:43.535Z,9.457228
2022-10-23T06:04:43.515Z,9.457174
2022-10-23T06:05:43.537Z,9.457118
2022-10-23T06:06:43.508Z,9.457107
2022-10-23T06:07:44.053Z,9.457126
2022-10-23T06:08:43.493Z,9.457178
2022-10-23T06:09:43.480Z,9.457160
2022-10-23T06:10:43.466Z,9.457108
2022-10-23T06:11:43.476Z,9.457299
2022-10-23T06:12:43.438Z,9.457347
2022-10-23T06:13:43.472Z,9.457176
2022-10-23T06:14:43.430Z,9.457236
2022-10-23T06:15:43.428Z,9.457191
2022-10-23T06:16:43.426Z,9.457200
2022-10-23T06:17:43.717Z,9.457157
2022-10-23T06:18:43.393Z,9.457190
2022-10-23T06:19:43.389Z,9.457092
2022-10-23T06:20:43.366Z,9.457078
2022-10-23T06:21:43.381Z,9.457124
2022-10-23T06:22:43.534Z,9.456820
2022-10-23T06:23:43.347Z,9.456937
2022-10-23T06:24:43.334Z,9.457010
2022-10-23T06:25:43.324Z,9.457094
2022-10-23T06:26:43.335Z,9.457089
2022-10-23T06:27:43.305Z,9.457172
2022-10-23T06:28:43.284Z,9.457041
2022-10-23T06:29:43.280Z,9.456854
2022-10-23T06:30:43.270Z,9.456875
2022-10-23T06:31:43.277Z,9.457117
2022-10-23T06:32:43.588Z,9.457029
2022-10-23T06:33:43.240Z,9.457027
2022-10-23T06:34:43.236Z,9.457090
2022-10-23T06:35:43.226Z,9.457120
2022-10-23T06:36:43.230Z,9.457091
2022-10-23T06:37:43.201Z,9.457006
2022-10-23T06:38:43.196Z,9.457045
2022-10-23T06:39:43.182Z,9.457057
2022-10-23T06:40:43.171Z,9.457050
2022-10-23T06:41:43.179Z,9.456962
2022-10-23T06:42:43.474Z,9.457034
2022-10-23T06:43:43.144Z,9.457155
2022-10-23T06:44:43.126Z,9.457124
2022-10-23T06:45:43.129Z,9.457167
2022-10-23T06:46:43.133Z,9.457265
2022-10-23T06:47:43.459Z,9.457123
2022-10-23T06:48:44.088Z,9.457123
2022-10-23T06:49:43.092Z,9.457223
2022-10-23T06:50:43.079Z,9.457191
2022-10-23T06:51:43.086Z,9.457023
2022-10-23T06:52:46.995Z,9.457162
2022-10-23T06:53:43.053Z,9.457225
2022-10-23T06:54:43.044Z,9.457075
2022-10-23T06:55:43.036Z,9.457101
2022-10-23T06:56:43.031Z,9.457165
2022-10-23T06:57:43.329Z,9.457228
2022-10-23T06:58:43.001Z,9.457080
2022-10-23T06:59:42.986Z,9.457102
2022-10-23T07:00:43.051Z,9.457079
2022-10-23T07:01:43.121Z,9.457100
2022-10-23T07:02:43.080Z,9.456907
2022-10-23T07:03:42.939Z,9.456890
2022-10-23T07:04:42.928Z,9.456853
2022-10-23T07:05:42.918Z,9.456940
2022-10-23T07:06:43.926Z,9.457135
2022-10-23T07:07:42.897Z,9.457569
2022-10-23T07:08:42.891Z,9.457140
2022-10-23T07:09:42.877Z,9.457084
2022-10-23T07:10:42.870Z,9.457140
2022-10-23T07:11:42.888Z,9.457125
2022-10-23T07:12:43.060Z,9.457047
2022-10-23T07:13:42.843Z,9.457056
2022-10-23T07:14:42.819Z,9.457057
2022-10-23T07:15:42.823Z,9.457193
2022-10-23T07:16:42.830Z,9.457136
2022-10-23T07:17:42.801Z,9.457330
2022-10-23T07:18:42.791Z,9.457084
2022-10-23T07:19:42.780Z,9.457124
2022-10-23T07:20:42.776Z,9.457058
2022-10-23T07:21:42.778Z,9.457079
2022-10-23T07:22:43.047Z,9.457182
2022-10-23T07:23:42.737Z,9.457294
2022-10-23T07:24:42.741Z,9.457179
2022-10-23T07:25:42.724Z,9.457228
2022-10-23T07:26:42.774Z,9.457161
2022-10-23T07:27:42.926Z,9.457161
2022-10-23T07:28:42.697Z,9.457080
2022-10-23T07:29:42.684Z,9.457328
2022-10-23T07:30:42.675Z,9.457250
2022-10-23T07:31:42.674Z,9.457171
2022-10-23T07:32:42.661Z,9.457151
2022-10-23T07:33:42.643Z,9.457376
2022-10-23T07:34:42.640Z,9.457364
2022-10-23T07:35:42.628Z,9.457183
2022-10-23T07:36:42.637Z,9.457161
2022-10-23T07:37:42.818Z,9.457216
2022-10-23T07:38:42.598Z,9.457241
2022-10-23T07:39:42.579Z,9.457246
2022-10-23T07:40:42.591Z,9.457206
2022-10-23T07:41:42.622Z,9.457331
2022-10-23T07:42:42.563Z,9.457258
2022-10-23T07:43:42.549Z,9.457228
2022-10-23T07:44:42.539Z,9.457172
2022-10-23T07:45:42.523Z,9.457298
2022-10-23T07:46:42.553Z,9.457330
2022-10-23T07:47:42.758Z,9.457378
2022-10-23T07:48:42.512Z,9.457303
2022-10-23T07:49:42.486Z,9.457309
2022-10-23T07:50:42.480Z,9.457233
2022-10-23T07:51:42.500Z,9.457206
2022-10-23T07:52:42.644Z,9.457249
2022-10-23T07:53:42.441Z,9.457397
2022-10-23T07:54:42.438Z,9.457294
2022-10-23T07:55:42.421Z,9.457350
2022-10-23T07:56:42.424Z,9.457224
2022-10-23T07:57:42.405Z,9.457271
2022-10-23T07:58:42.402Z,9.457281
2022-10-23T07:59:42.389Z,9.457249
2022-10-23T08:00:42.396Z,9.457259
2022-10-23T08:01:42.650Z,9.457268
2022-10-23T08:02:42.604Z,9.457260
2022-10-23T08:03:42.351Z,9.457282
2022-10-23T08:04:42.332Z,9.457159
2022-10-23T08:05:42.329Z,9.457228
2022-10-23T08:06:42.341Z,9.457316
2022-10-23T08:07:42.308Z,9.457283
2022-10-23T08:08:42.343Z,9.457328
2022-10-23T08:09:42.277Z,9.457257
2022-10-23T08:10:42.274Z,9.457226
2022-10-23T08:11:42.280Z,9.457264
2022-10-23T08:12:42.574Z,9.457299
2022-10-23T08:13:43.243Z,9.457326
2022-10-23T08:14:42.226Z,9.457314
2022-10-23T08:15:42.222Z,9.457302
2022-10-23T08:16:42.228Z,9.457293
2022-10-23T08:17:42.529Z,9.457292
2022-10-23T08:18:42.172Z,9.457394
2022-10-23T08:19:42.189Z,9.457328
2022-10-23T08:20:42.171Z,9.457240
2022-10-23T08:21:42.186Z,9.457240
2022-10-23T08:22:42.154Z,9.457304
2022-10-23T08:23:42.148Z,9.457250
2022-10-23T08:24:42.137Z,9.457267
2022-10-23T08:25:42.124Z,9.457252
2022-10-23T08:26:42.134Z,9.457256
2022-10-23T08:27:42.571Z,9.457222
2022-10-23T08:28:42.096Z,9.457252
2022-10-23T08:29:42.088Z,9.457216
2022-10-23T08:30:42.083Z,9.457315
2022-10-23T08:31:42.091Z,9.457299
2022-10-23T08:32:42.052Z,9.457337
2022-10-23T08:33:42.068Z,9.457337
2022-10-23T08:34:42.033Z,9.457376
2022-10-23T08:35:42.030Z,9.457302
2022-10-23T08:36:42.048Z,9.457265
2022-10-23T08:37:42.268Z,9.457216
2022-10-23T08:38:41.993Z,9.457218
2022-10-23T08:39:41.989Z,9.457329
2022-10-23T08:40:41.975Z,9.457162
2022-10-23T08:41:41.979Z,9.457171
2022-10-23T08:42:42.308Z,9.457262
2022-10-23T08:43:41.952Z,9.457247
2022-10-23T08:44:41.935Z,9.457252
2022-10-23T08:45:41.928Z,9.457234
2022-10-23T08:46:41.934Z,9.457239
2022-10-23T08:47:41.908Z,9.457217
2022-10-23T08:48:41.899Z,9.457189
2022-10-23T08:49:41.890Z,9.457191
2022-10-23T08:50:41.882Z,9.457234
2022-10-23T08:51:41.885Z,9.457218
2022-10-23T08:52:42.329Z,9.457265
2022-10-23T08:53:41.848Z,9.457159
2022-10-23T08:54:41.839Z,9.457212
2022-10-23T08:55:41.830Z,9.457207
2022-10-23T08:56:41.830Z,9.457123
2022-10-23T08:57:43.513Z,9.457121
2022-10-23T08:58:41.822Z,9.457112
2022-10-23T08:59:41.787Z,9.457223
2022-10-23T09:00:41.841Z,9.457292
2022-10-23T09:01:41.908Z,9.457315
2022-10-23T09:02:42.100Z,9.457276
2022-10-23T09:03:41.771Z,9.457187
2022-10-23T09:04:41.745Z,9.457166
2022-10-23T09:05:41.741Z,9.457225
2022-10-23T09:06:41.733Z,9.457184
2022-10-23T09:07:41.953Z,9.457183
2022-10-23T09:08:41.704Z,9.457100
2022-10-23T09:09:41.694Z,9.457171
2022-10-23T09:10:41.686Z,9.457183
2022-10-23T09:11:41.700Z,9.457191
2022-10-23T09:12:41.665Z,9.456903
2022-10-23T09:13:41.653Z,9.457075
2022-10-23T09:14:41.644Z,9.457020
2022-10-23T09:15:41.638Z,9.457043
2022-10-23T09:16:41.664Z,9.457255
2022-10-23T09:17:41.939Z,9.457152
2022-10-23T09:18:41.617Z,9.457172
2022-10-23T09:19:41.597Z,9.457271
2022-10-23T09:20:41.592Z,9.457221
2022-10-23T09:21:41.608Z,9.457128
2022-10-23T09:22:41.566Z,9.457211
2022-10-23T09:23:41.559Z,9.457109
2022-10-23T09:24:41.546Z,9.457087
2022-10-23T09:25:41.551Z,9.457035
2022-10-23T09:26:41.548Z,9.457059
2022-10-23T09:27:41.915Z,9.457089
2022-10-23T09:28:41.504Z,9.457251
2022-10-23T09:29:41.495Z,9.457200
2022-10-23T09:30:41.490Z,9.457244
2022-10-23T09:31:41.498Z,9.457272
2022-10-23T09:32:41.470Z,9.457253
2022-10-23T09:33:41.480Z,9.457228
2022-10-23T09:34:41.445Z,9.457267
2022-10-23T09:35:41.448Z,9.457204
2022-10-23T09:36:41.455Z,9.457245
2022-10-23T09:37:41.654Z,9.457286
2022-10-23T09:38:41.424Z,9.457326
2022-10-23T09:39:41.406Z,9.457218
2022-10-23T09:40:41.394Z,9.457272
2022-10-23T09:41:41.408Z,9.457138
2022-10-23T09:42:41.366Z,9.457224
2022-10-23T09:43:41.358Z,9.457138
2022-10-23T09:44:41.334Z,9.457217
2022-10-23T09:45:42.343Z,9.457255
2022-10-23T09:46:41.420Z,9.457130
2022-10-23T09:47:41.735Z,9.457214
2022-10-23T09:48:41.313Z,9.457191
2022-10-23T09:49:41.309Z,9.457233
2022-10-23T09:50:41.287Z,9.457271
2022-10-23T09:51:41.304Z,9.457131
2022-10-23T09:52:41.279Z,9.457173
2022-10-23T09:53:41.259Z,9.457204
2022-10-23T09:54:41.263Z,9.457270
2022-10-23T09:55:41.243Z,9.457185
2022-10-23T09:56:41.320Z,9.457278
2022-10-23T09:57:41.553Z,9.457211
2022-10-23T09:58:41.216Z,9.457178
2022-10-23T09:59:41.203Z,9.457206
2022-10-23T10:00:41.210Z,9.457153
2022-10-23T10:01:41.330Z,9.457198
2022-10-23T10:02:41.178Z,9.457286
2022-10-23T10:03:41.162Z,9.457257
2022-10-23T10:04:41.163Z,9.457277
2022-10-23T10:05:41.145Z,9.457231
2022-10-23T10:07:41.242Z,9.457129
2022-10-23T10:08:41.111Z,9.457134
2022-10-23T10:09:41.112Z,9.457181
2022-10-23T10:10:41.101Z,9.457238
2022-10-23T10:11:41.113Z,9.457174
2022-10-23T10:12:41.085Z,9.457264
2022-10-23T10:13:41.066Z,9.457416
2022-10-23T10:14:41.056Z,9.457303
2022-10-23T10:15:41.060Z,9.457370
2022-10-23T10:16:41.057Z,9.457243
2022-10-23T10:17:41.178Z,9.457221
2022-10-23T10:18:41.018Z,9.457253
2022-10-23T10:19:41.007Z,9.457117
2022-10-23T10:20:41.001Z,9.457233
2022-10-23T10:21:41.021Z,9.457215
2022-10-23T10:22:40.977Z,9.457317
2022-10-23T10:23:40.967Z,9.457226
2022-10-23T10:24:40.967Z,9.457247
2022-10-23T10:25:40.951Z,9.457274
2022-10-23T10:26:40.999Z,9.457234
2022-10-23T10:27:41.230Z,9.457156
2022-10-23T10:28:40.914Z,9.457223
2022-10-23T10:29:40.900Z,9.457235
2022-10-23T10:30:40.893Z,9.457247
2022-10-23T10:31:40.987Z,9.457288
2022-10-23T10:32:40.882Z,9.457282
2022-10-23T10:33:40.870Z,9.457351
2022-10-23T10:34:40.847Z,9.457279
2022-10-23T10:35:40.846Z,9.457248
2022-10-23T10:36:40.866Z,9.457260
2022-10-23T10:37:42.243Z,9.457214
2022-10-23T10:38:40.808Z,9.457195
2022-10-23T10:39:40.804Z,9.457183
2022-10-23T10:40:40.805Z,9.457262
2022-10-23T10:41:40.809Z,9.457219
2022-10-23T10:42:40.795Z,9.457196
2022-10-23T10:43:40.774Z,9.457207
2022-10-23T10:44:40.761Z,9.457144
2022-10-23T10:45:40.753Z,9.457190
2022-10-23T10:46:40.761Z,9.457230
2022-10-23T10:47:41.089Z,9.457273
2022-10-23T10:48:40.726Z,9.457241
2022-10-23T10:49:40.710Z,9.457141
2022-10-23T10:50:40.693Z,9.457237
2022-10-23T10:51:40.710Z,9.457191
2022-10-23T10:52:43.180Z,9.457213
2022-10-23T10:53:40.675Z,9.457195
2022-10-23T10:54:40.654Z,9.457162
2022-10-23T10:55:40.658Z,9.457145
2022-10-23T10:56:40.668Z,9.457171
2022-10-23T10:57:40.683Z,9.457294
2022-10-23T11:11:27.957Z,9.457387
2022-10-23T11:12:27.970Z,9.457502
2022-10-23T11:13:27.934Z,9.457512
2022-10-23T11:14:27.918Z,9.457341
2022-10-23T11:15:27.916Z,9.457335
2022-10-23T11:16:27.908Z,9.457495
2022-10-23T11:17:27.919Z,9.457544
2022-10-23T11:18:27.884Z,9.457242
2022-10-23T11:19:27.876Z,9.457391
2022-10-23T11:20:27.870Z,9.457322
2022-10-23T11:21:27.864Z,9.457363
2022-10-23T11:22:27.894Z,9.457025
2022-10-23T11:23:27.848Z,9.457035
2022-10-23T11:24:27.835Z,9.457165
2022-10-23T11:25:27.829Z,9.457301
2022-10-23T11:26:27.813Z,9.457331
2022-10-23T11:27:27.834Z,9.457184
2022-10-23T11:28:27.794Z,9.457251
2022-10-23T11:29:27.773Z,9.457376
2022-10-23T11:30:27.779Z,9.457532
2022-10-23T11:31:27.763Z,9.457416
2022-10-23T11:32:27.812Z,9.457402
2022-10-23T11:33:27.747Z,9.457665
2022-10-23T11:34:27.737Z,9.457588
2022-10-23T11:35:27.733Z,9.457236
2022-10-23T11:36:27.721Z,9.457211
2022-10-23T11:37:27.728Z,9.457496
2022-10-23T11:38:27.694Z,9.457417
2022-10-23T11:39:27.693Z,9.457146
2022-10-23T11:40:27.689Z,9.457294
2022-10-23T11:41:27.670Z,9.457405
2022-10-23T11:42:27.676Z,9.457417
2022-10-23T11:43:27.648Z,9.457466
2022-10-23T11:44:27.653Z,9.457355
2022-10-23T11:45:27.620Z,9.457464
2022-10-23T11:46:27.647Z,9.457422
2022-10-23T11:47:27.613Z,9.457500
2022-10-23T11:48:27.609Z,9.457443
2022-10-23T11:49:27.584Z,9.457301
2022-10-23T11:50:27.596Z,9.457456
2022-10-23T11:51:27.593Z,9.457466
2022-10-23T11:52:27.558Z,9.457184
2022-10-23T11:53:27.540Z,9.457361
2022-10-23T11:54:27.545Z,9.457345
2022-10-23T11:55:27.529Z,9.457411
2022-10-23T11:56:27.539Z,9.457306
2022-10-23T11:57:27.520Z,9.457248
2022-10-23T11:58:27.503Z,9.457272
2022-10-23T11:59:27.496Z,9.457349
2022-10-23T12:00:27.490Z,9.457426